createdAt,value
2023-03-01T00:03:19.193Z,95580.00
2023-03-01T00:04:19.511Z,95578.00
2023-03-01T00:05:20.100Z,95578.00
2023-03-01T00:06:19.041Z,95578.00
2023-03-01T00:07:20.543Z,95576.00
2023-03-01T00:08:21.368Z,95576.00
2023-03-01T00:09:20.539Z,95576.00
2023-03-01T00:19:59.083Z,95570.00
2023-03-01T00:20:58.975Z,95572.00
2023-03-01T00:21:58.674Z,95572.00
2023-03-01T00:22:58.646Z,95568.00
2023-03-01T00:23:58.622Z,95566.00
2023-03-01T00:24:58.613Z,95566.00
2023-03-01T00:25:58.711Z,95568.00
2023-03-01T00:26:58.597Z,95566.00
2023-03-01T00:27:58.610Z,95568.00
2023-03-01T00:28:58.712Z,95564.00
2023-03-01T00:29:58.540Z,95560.00
2023-03-01T00:30:58.673Z,95566.00
2023-03-01T00:31:58.691Z,95564.00
2023-03-01T00:32:58.525Z,95560.00
2023-03-01T00:33:58.633Z,95566.00
2023-03-01T00:34:58.557Z,95562.00
2023-03-01T00:35:58.583Z,95564.00
2023-03-01T00:36:58.608Z,95562.00
2023-03-01T01:44:21.541Z,95498.00
2023-03-01T01:46:21.227Z,95500.00
2023-03-01T01:47:21.323Z,95496.00
2023-03-01T01:48:21.106Z,95498.00
2023-03-01T01:49:21.098Z,95494.00
2023-03-01T01:57:23.468Z,95484.00
2023-03-01T02:09:23.275Z,95474.00
2023-03-01T02:10:23.537Z,95476.00
2023-03-01T02:11:23.353Z,95476.00
2023-03-01T02:12:23.138Z,95472.00
2023-03-01T02:13:23.122Z,95470.00
2023-03-01T02:14:23.153Z,95472.00
2023-03-01T02:15:23.116Z,95470.00
2023-03-01T02:16:23.270Z,95468.00
2023-03-01T02:17:23.096Z,95468.00
2023-03-01T02:23:19.619Z,95468.00
2023-03-01T02:24:23.010Z,95466.00
2023-03-01T02:25:23.174Z,95470.00
2023-03-01T02:26:22.883Z,95470.00
2023-03-01T02:27:22.970Z,95470.00
2023-03-01T02:28:22.865Z,95468.00
2023-03-01T02:45:57.264Z,95449.00
2023-03-01T02:48:16.597Z,95449.00
2023-03-01T02:49:16.871Z,95449.00
2023-03-01T02:53:57.669Z,95451.00
2023-03-01T02:54:58.610Z,95445.00
2023-03-01T02:57:17.114Z,95445.00
2023-03-01T02:58:16.906Z,95445.00
2023-03-01T02:59:17.052Z,95443.00
2023-03-01T03:00:16.764Z,95441.00
2023-03-01T03:01:16.898Z,95437.00
2023-03-01T03:02:16.781Z,95437.00
2023-03-01T03:03:16.777Z,95435.00
2023-03-01T03:04:16.765Z,95433.00
2023-03-01T03:05:16.786Z,95435.00
2023-03-01T03:06:16.965Z,95435.00
2023-03-01T03:07:16.774Z,95435.00
2023-03-01T03:08:16.734Z,95433.00
2023-03-01T03:09:16.910Z,95435.00
2023-03-01T03:10:16.695Z,95433.00
2023-03-01T03:11:16.748Z,95427.00
2023-03-01T03:12:16.694Z,95427.00
2023-03-01T03:13:16.747Z,95429.00
2023-03-01T03:14:16.731Z,95427.00
2023-03-01T03:15:16.729Z,95427.00
2023-03-01T03:16:16.717Z,95427.00
2023-03-01T03:17:16.674Z,95427.00
2023-03-01T03:18:16.671Z,95429.00
2023-03-01T03:19:16.647Z,95427.00
2023-03-01T03:20:16.679Z,95427.00
2023-03-01T03:23:59.020Z,95425.00
2023-03-01T03:24:57.020Z,95417.00
2023-03-01T03:25:56.637Z,95417.00
2023-03-01T03:26:56.612Z,95425.00
2023-03-01T03:27:56.589Z,95427.00
2023-03-01T03:28:56.649Z,95425.00
2023-03-01T03:29:56.556Z,95417.00
2023-03-01T03:30:56.562Z,95415.00
2023-03-01T03:31:56.645Z,95413.00
2023-03-01T03:32:56.575Z,95413.00
2023-03-01T03:33:56.527Z,95411.00
2023-03-01T03:34:56.536Z,95413.00
2023-03-01T04:45:30.146Z,95380.00
2023-03-01T04:46:30.360Z,95378.00
2023-03-01T04:47:30.261Z,95380.00
2023-03-01T04:48:29.927Z,95378.00
2023-03-01T04:49:29.887Z,95380.00
2023-03-01T04:50:29.870Z,95382.00
2023-03-01T04:51:29.929Z,95380.00
2023-03-01T04:52:29.872Z,95378.00
2023-03-01T04:53:30.064Z,95378.00
2023-03-01T04:54:29.907Z,95378.00
2023-03-01T04:55:29.841Z,95372.00
2023-03-01T04:56:30.098Z,95374.00
2023-03-01T04:57:29.813Z,95376.00
2023-03-01T04:58:29.845Z,95372.00
2023-03-01T04:59:29.827Z,95374.00
2023-03-01T05:00:29.827Z,95376.00
2023-03-01T05:01:29.833Z,95374.00
2023-03-01T05:02:29.873Z,95372.00
2023-03-01T05:03:29.803Z,95374.00
2023-03-01T05:04:29.863Z,95370.00
2023-03-01T05:05:29.822Z,95370.00
2023-03-01T05:06:30.126Z,95374.00
2023-03-01T05:07:29.827Z,95370.00
2023-03-01T05:08:29.867Z,95370.00
2023-03-01T05:09:29.912Z,95368.00
2023-03-01T05:10:30.003Z,95370.00
2023-03-01T05:11:30.011Z,95368.00
2023-03-01T05:12:30.030Z,95364.00
2023-03-01T05:13:30.043Z,95368.00
2023-03-01T05:14:30.103Z,95364.00
2023-03-01T05:15:30.198Z,95368.00
2023-03-01T05:16:30.426Z,95372.00
2023-03-01T05:17:30.170Z,95374.00
2023-03-01T05:18:30.217Z,95370.00
2023-03-01T05:19:30.224Z,95372.00
2023-03-01T05:20:30.190Z,95368.00
2023-03-01T05:21:30.236Z,95370.00
2023-03-01T05:22:30.312Z,95370.00
2023-03-01T05:23:30.308Z,95366.00
2023-03-01T05:24:30.336Z,95366.00
2023-03-01T05:25:30.368Z,95368.00
2023-03-01T05:26:30.366Z,95368.00
2023-03-01T05:27:30.447Z,95372.00
2023-03-01T05:28:30.426Z,95370.00
2023-03-01T05:29:30.479Z,95370.00
2023-03-01T05:30:30.480Z,95370.00
2023-03-01T05:31:30.584Z,95366.00
2023-03-01T05:33:30.630Z,95370.00
2023-03-01T06:47:30.691Z,95370.00
2023-03-01T06:48:31.003Z,95368.00
2023-03-01T06:49:30.565Z,95368.00
2023-03-01T06:50:30.571Z,95370.00
2023-03-01T06:51:31.434Z,95370.00
2023-03-01T06:52:30.413Z,95372.00
2023-03-01T07:03:50.174Z,95372.00
2023-03-01T07:53:15.406Z,95355.00
2023-03-01T07:54:15.548Z,95358.00
2023-03-01T07:55:15.091Z,95358.00
2023-03-01T07:56:30.482Z,95358.00
2023-03-01T07:57:14.915Z,95361.00
2023-03-01T07:58:15.341Z,95361.00
2023-03-01T07:59:14.882Z,95358.00
2023-03-01T08:00:14.926Z,95361.00
2023-03-01T08:01:15.610Z,95363.00
2023-03-01T08:02:14.855Z,95361.00
2023-03-01T08:03:14.861Z,95358.00
2023-03-01T08:04:14.834Z,95361.00
2023-03-01T08:05:14.813Z,95358.00
2023-03-01T08:06:14.759Z,95358.00
2023-03-01T08:07:14.781Z,95366.00
2023-03-01T08:08:14.831Z,95368.00
2023-03-01T08:09:14.740Z,95366.00
2023-03-01T08:10:14.769Z,95372.00
2023-03-01T08:11:14.761Z,95368.00
2023-03-01T08:12:14.715Z,95372.00
2023-03-01T08:13:15.196Z,95370.00
2023-03-01T08:14:14.802Z,95370.00
2023-03-01T08:15:14.724Z,95374.00
2023-03-01T08:16:14.793Z,95370.00
2023-03-01T08:17:14.760Z,95372.00
2023-03-01T08:18:14.830Z,95368.00
2023-03-01T08:19:14.798Z,95368.00
2023-03-01T08:20:14.820Z,95366.00
2023-03-01T08:21:14.830Z,95364.00
2023-03-01T08:22:15.028Z,95364.00
2023-03-01T08:24:15.012Z,95361.00
2023-03-01T08:25:14.951Z,95356.00
2023-03-01T08:26:14.955Z,95356.00
2023-03-01T08:27:14.999Z,95356.00
2023-03-01T08:29:15.137Z,95355.00
2023-03-01T08:30:15.160Z,95353.00
2023-03-01T08:31:15.329Z,95353.00
2023-03-01T08:32:15.642Z,95353.00
2023-03-01T08:34:15.320Z,95351.00
2023-03-01T08:35:15.700Z,95349.00
2023-03-01T08:36:15.448Z,95349.00
2023-03-01T08:37:15.438Z,95345.00
2023-03-01T08:58:31.187Z,95321.00
2023-03-01T09:04:16.172Z,95321.00
2023-03-01T09:29:29.492Z,95309.00
2023-03-01T09:42:55.045Z,95309.00
2023-03-01T09:43:50.844Z,95309.00
2023-03-01T09:47:31.091Z,95304.00
2023-03-01T09:49:50.047Z,95306.00
2023-03-01T09:51:05.023Z,95302.00
2023-03-01T09:51:49.656Z,95298.00
2023-03-01T09:52:49.799Z,95294.00
2023-03-01T09:53:49.605Z,95296.00
2023-03-01T09:54:49.645Z,95292.00
2023-03-01T09:55:49.586Z,95290.00
2023-03-01T09:56:49.633Z,95286.00
2023-03-01T09:58:49.797Z,95278.00
2023-03-01T09:59:50.218Z,95282.00
2023-03-01T10:00:50.036Z,95280.00
2023-03-01T10:01:50.154Z,95280.00
2023-03-01T10:02:50.582Z,95276.00
2023-03-01T10:03:51.772Z,95274.00
2023-03-01T10:04:50.127Z,95272.00
2023-03-01T10:06:04.966Z,95270.00
2023-03-01T10:06:49.624Z,95270.00
2023-03-01T10:14:49.473Z,95270.00
2023-03-01T10:15:49.570Z,95270.00
2023-03-01T10:16:49.479Z,95270.00
2023-03-01T10:17:49.497Z,95270.00
2023-03-01T10:18:49.456Z,95269.00
2023-03-01T10:19:49.459Z,95263.00
2023-03-01T10:20:49.477Z,95263.00
2023-03-01T10:25:49.453Z,95247.00
2023-03-01T11:03:08.385Z,95153.00
2023-03-01T11:15:08.407Z,95116.00
2023-03-01T11:21:28.264Z,95100.00
2023-03-01T11:22:27.903Z,95098.00
2023-03-01T11:23:29.008Z,95100.00
2023-03-01T11:25:48.010Z,95088.00
2023-03-01T11:26:47.491Z,95082.00
2023-03-01T11:27:47.474Z,95082.00
2023-03-01T11:28:47.881Z,95078.00
2023-03-01T11:29:49.026Z,95073.00
2023-03-01T11:30:53.088Z,95076.00
2023-03-01T11:31:57.285Z,95075.00
2023-03-01T11:32:48.415Z,95075.00
2023-03-01T11:33:47.327Z,95078.00
2023-03-01T11:34:47.326Z,95075.00
2023-03-01T11:39:06.886Z,95073.00
2023-03-01T11:41:06.974Z,95067.00
2023-03-01T11:42:18.068Z,95067.00
2023-03-01T11:49:08.193Z,95055.00
2023-03-01T11:50:07.638Z,95051.00
2023-03-01T11:51:08.387Z,95051.00
2023-03-01T11:53:07.106Z,95045.00
2023-03-01T13:23:39.959Z,94959.00
2023-03-01T13:33:39.924Z,94934.00
2023-03-01T14:13:37.403Z,94882.00
2023-03-01T14:22:35.278Z,94869.00
2023-03-01T14:23:34.635Z,94871.00
2023-03-01T14:24:34.688Z,94867.00
2023-03-01T14:25:34.658Z,94871.00
2023-03-01T14:26:34.614Z,94867.00
2023-03-01T14:27:34.699Z,94869.00
2023-03-01T14:28:34.667Z,94867.00
2023-03-01T14:29:34.624Z,94871.00
2023-03-01T14:30:34.624Z,94869.00
2023-03-01T14:31:40.982Z,94867.00
2023-03-01T14:52:34.694Z,94867.00
2023-03-01T14:53:45.830Z,94873.00
2023-03-01T14:54:35.669Z,94873.00
2023-03-01T14:55:34.704Z,94867.00
2023-03-01T14:56:34.665Z,94865.00
2023-03-01T14:57:34.684Z,94859.00
2023-03-01T14:58:34.855Z,94857.00
2023-03-01T14:59:34.690Z,94861.00
2023-03-01T15:07:34.584Z,94861.00
2023-03-01T15:08:34.599Z,94857.00
2023-03-01T15:09:34.810Z,94855.00
2023-03-01T15:10:34.724Z,94855.00
2023-03-01T15:11:35.191Z,94855.00
2023-03-01T15:12:34.860Z,94851.00
2023-03-01T15:13:34.839Z,94853.00
2023-03-01T15:14:34.952Z,94853.00
2023-03-01T16:01:54.563Z,94863.00
2023-03-01T16:29:54.379Z,94881.00
2023-03-01T16:30:54.407Z,94881.00
2023-03-01T16:31:54.502Z,94882.00
2023-03-01T16:32:54.513Z,94884.00
2023-03-01T16:33:54.537Z,94884.00
2023-03-01T16:34:54.546Z,94886.00
2023-03-01T16:35:54.596Z,94884.00
2023-03-01T17:48:13.947Z,94975.00
2023-03-01T17:49:14.107Z,94973.00
2023-03-01T17:50:13.907Z,94973.00
2023-03-01T18:14:49.839Z,94977.00
2023-03-01T19:01:13.145Z,95010.00
2023-03-01T19:02:13.186Z,95010.00
2023-03-01T19:03:12.931Z,95012.00
2023-03-01T19:37:32.866Z,95035.00
2023-03-01T19:38:32.875Z,95035.00
2023-03-01T19:39:32.852Z,95037.00
2023-03-01T19:40:32.832Z,95041.00
2023-03-01T19:41:32.859Z,95039.00
2023-03-01T19:42:32.849Z,95041.00
2023-03-01T19:48:23.791Z,95031.00
2023-03-01T19:49:23.594Z,95039.00
2023-03-01T19:50:23.390Z,95041.00
2023-03-01T20:02:57.432Z,95039.00
2023-03-01T20:03:57.355Z,95039.00
2023-03-01T20:09:57.107Z,95039.00
2023-03-01T20:12:16.721Z,95043.00
2023-03-01T20:13:16.668Z,95043.00
2023-03-01T20:14:16.604Z,95043.00
2023-03-01T20:15:16.580Z,95043.00
2023-03-01T20:16:16.611Z,95043.00
2023-03-01T20:17:16.565Z,95045.00
2023-03-01T20:18:16.572Z,95045.00
2023-03-01T20:19:16.543Z,95047.00
2023-03-01T20:20:16.554Z,95043.00
2023-03-01T20:21:24.794Z,95045.00
2023-03-01T20:22:17.906Z,95043.00
2023-03-01T20:23:16.548Z,95037.00
2023-03-01T20:24:16.535Z,95039.00
2023-03-01T20:25:16.566Z,95043.00
2023-03-01T20:26:16.595Z,95041.00
2023-03-01T20:27:16.507Z,95037.00
2023-03-01T20:28:16.491Z,95037.00
2023-03-01T20:29:16.485Z,95041.00
2023-03-01T20:30:16.493Z,95041.00
2023-03-01T20:31:16.518Z,95039.00
2023-03-01T20:32:16.579Z,95041.00
2023-03-01T20:33:16.476Z,95039.00
2023-03-01T20:34:16.478Z,95041.00
2023-03-01T20:35:16.433Z,95043.00
2023-03-01T20:36:16.467Z,95037.00
2023-03-01T20:37:16.446Z,95043.00
2023-03-01T20:38:16.481Z,95045.00
2023-03-01T20:39:16.581Z,95047.00
2023-03-01T20:40:16.730Z,95047.00
2023-03-01T20:41:16.602Z,95049.00
2023-03-01T20:42:16.625Z,95047.00
2023-03-01T20:43:16.602Z,95047.00
2023-03-01T20:44:16.683Z,95047.00
2023-03-01T20:45:16.641Z,95047.00
2023-03-01T20:46:16.745Z,95047.00
2023-03-01T20:47:16.732Z,95049.00
2023-03-01T20:48:16.741Z,95045.00
2023-03-01T20:49:16.803Z,95047.00
2023-03-01T20:50:16.865Z,95043.00
2023-03-01T20:51:16.882Z,95045.00
2023-03-01T20:52:16.995Z,95043.00
2023-03-01T20:53:17.018Z,95045.00
2023-03-01T20:54:17.003Z,95045.00
2023-03-01T20:55:17.077Z,95047.00
2023-03-01T20:56:17.044Z,95047.00
2023-03-01T20:57:17.066Z,95049.00
2023-03-01T20:58:17.112Z,95049.00
2023-03-01T20:59:17.129Z,95045.00
2023-03-01T21:00:17.150Z,95049.00
2023-03-01T21:01:17.240Z,95047.00
2023-03-01T21:02:17.217Z,95045.00
2023-03-01T21:03:17.240Z,95047.00
2023-03-01T21:04:17.365Z,95051.00
2023-03-01T21:05:17.246Z,95049.00
2023-03-01T21:06:17.302Z,95047.00
2023-03-01T21:07:17.262Z,95047.00
2023-03-01T21:08:17.302Z,95045.00
2023-03-01T21:09:17.327Z,95045.00
2023-03-01T21:10:17.438Z,95039.00
2023-03-01T21:11:17.510Z,95041.00
2023-03-01T21:12:17.443Z,95041.00
2023-03-01T21:13:17.384Z,95041.00
2023-03-01T21:14:17.428Z,95041.00
2023-03-01T21:15:28.330Z,95045.00
2023-03-01T21:16:18.534Z,95045.00
2023-03-01T21:17:17.417Z,95045.00
2023-03-01T21:18:17.424Z,95045.00
2023-03-01T21:19:17.438Z,95047.00
2023-03-01T21:20:17.402Z,95045.00
2023-03-01T21:21:17.402Z,95045.00
2023-03-01T21:22:17.420Z,95043.00
2023-03-01T21:23:17.379Z,95039.00
2023-03-01T21:24:17.464Z,95039.00
2023-03-01T21:25:17.414Z,95039.00
2023-03-01T21:26:17.398Z,95041.00
2023-03-01T21:27:17.404Z,95041.00
2023-03-01T21:28:17.504Z,95041.00
2023-03-01T21:29:17.556Z,95041.00
2023-03-01T21:30:17.635Z,95041.00
2023-03-01T21:31:17.715Z,95043.00
2023-03-01T21:32:17.878Z,95045.00
2023-03-01T21:33:17.777Z,95045.00
2023-03-01T21:34:17.877Z,95047.00
2023-03-01T21:35:17.958Z,95045.00
2023-03-01T21:36:17.928Z,95041.00
2023-03-01T21:37:17.930Z,95043.00
2023-03-01T21:38:17.935Z,95041.00
2023-03-01T21:39:18.022Z,95041.00
2023-03-01T21:40:18.050Z,95043.00
2023-03-01T21:41:18.033Z,95041.00
2023-03-01T21:42:18.074Z,95039.00
2023-03-01T21:43:18.112Z,95039.00
2023-03-01T21:44:18.295Z,95037.00
2023-03-01T21:45:18.179Z,95033.00
2023-03-01T21:46:18.204Z,95031.00
2023-03-01T21:47:18.284Z,95033.00
2023-03-01T21:48:18.264Z,95033.00
2023-03-01T21:49:18.318Z,95035.00
2023-03-01T21:50:18.325Z,95033.00
2023-03-01T21:51:18.424Z,95035.00
2023-03-01T21:52:18.438Z,95035.00
2023-03-01T21:53:18.470Z,95033.00
2023-03-01T21:54:18.532Z,95031.00
2023-03-01T21:55:18.613Z,95033.00
2023-03-01T21:56:18.677Z,95033.00
2023-03-01T21:57:18.639Z,95033.00
2023-03-01T21:58:18.668Z,95029.00
2023-03-01T21:59:18.766Z,95026.00
2023-03-01T22:00:18.770Z,95026.00
2023-03-01T22:01:18.919Z,95020.00
2023-03-01T22:02:18.858Z,95024.00
2023-03-01T22:03:18.918Z,95024.00
2023-03-01T22:04:18.915Z,95024.00
2023-03-01T22:05:18.979Z,95022.00
2023-03-01T22:06:30.011Z,95018.00
2023-03-01T22:07:20.033Z,95016.00
2023-03-01T22:08:18.998Z,95018.00
2023-03-01T22:09:19.048Z,95020.00
2023-03-01T22:10:18.992Z,95022.00
2023-03-01T22:11:19.009Z,95022.00
2023-03-01T22:12:18.975Z,95024.00
2023-03-01T22:14:39.015Z,95022.00
2023-03-01T22:15:39.031Z,95024.00
2023-03-01T22:16:38.859Z,95024.00
2023-03-01T22:17:38.739Z,95020.00
2023-03-01T22:18:38.813Z,95020.00
2023-03-01T22:19:38.740Z,95020.00
2023-03-01T22:20:38.764Z,95020.00
2023-03-01T22:21:38.698Z,95022.00
2023-03-01T22:23:59.146Z,95022.00
2023-03-01T22:24:58.947Z,95022.00
2023-03-01T22:25:59.150Z,95020.00
2023-03-01T22:26:58.915Z,95018.00
2023-03-01T22:27:58.875Z,95020.00
2023-03-01T22:28:58.912Z,95018.00
2023-03-01T22:29:58.841Z,95018.00
2023-03-01T22:30:58.849Z,95016.00
2023-03-01T22:31:58.959Z,95016.00
2023-03-01T22:32:58.835Z,95016.00
2023-03-01T22:33:58.830Z,95014.00
2023-03-01T22:34:58.851Z,95012.00
2023-03-01T22:35:58.889Z,95014.00
2023-03-01T22:36:58.838Z,95014.00
2023-03-01T22:37:58.809Z,95014.00
2023-03-01T22:38:58.795Z,95016.00
2023-03-01T22:39:58.753Z,95016.00
2023-03-01T22:40:58.784Z,95014.00
2023-03-01T22:41:58.764Z,95016.00
2023-03-01T22:42:58.815Z,95018.00
2023-03-01T22:43:58.787Z,95014.00
2023-03-01T22:44:58.796Z,95012.00
2023-03-01T22:45:58.770Z,95008.00
2023-03-01T22:46:58.793Z,95004.00
2023-03-01T22:47:58.734Z,95008.00
2023-03-01T22:48:58.729Z,95010.00
2023-03-01T22:49:58.732Z,95010.00
2023-03-01T22:50:58.748Z,95010.00
2023-03-01T22:52:00.371Z,95010.00
2023-03-01T22:52:58.699Z,95010.00
2023-03-01T22:53:58.766Z,95008.00
2023-03-01T22:54:58.680Z,95008.00
2023-03-01T22:55:58.709Z,95008.00
2023-03-01T22:56:58.740Z,95008.00
2023-03-01T22:57:58.818Z,95012.00
2023-03-01T22:58:58.790Z,95010.00
2023-03-01T22:59:58.825Z,95010.00
2023-03-01T23:00:58.854Z,95012.00
2023-03-01T23:01:58.892Z,95014.00
2023-03-01T23:02:58.965Z,95018.00
2023-03-01T23:03:58.982Z,95020.00
2023-03-01T23:04:59.011Z,95020.00
2023-03-01T23:05:59.006Z,95018.00
2023-03-01T23:06:59.061Z,95016.00
2023-03-01T23:07:59.034Z,95018.00
2023-03-01T23:08:59.170Z,95016.00
2023-03-01T23:09:59.152Z,95020.00
2023-03-01T23:10:59.204Z,95020.00
2023-03-01T23:11:59.257Z,95022.00
2023-03-01T23:13:59.394Z,95022.00
2023-03-01T23:39:16.948Z,95029.00
